Fai una donazione per la manutenzione ed il rinnovamento della strumentazione meteorologica e per il sito che la ospita.


Webcam more information Webcam



avvertimento per Pioggia more information rain snow radar


altri nostri siti meteo:

Previsioni audio clicca per ascoltarePrevisioni audio

RISCHIO INCENDIRischio incendi

PomeziameteoSito sul meteo

MeteopomeziaSito sul meteo

Pomeziameteo DashboardSito sul meteo

Caput FrigorisSito sul meteo

BarcellonameteoSito sul meteo

MeteoipassiSito sul meteo

TortoretometeolidoSito sul meteo

CastelnuovovomanometeoSito sul meteo

MeteogonzagaSito sul meteo

MeteonetworkInvio dai a Meteonetwork

Weather UndergroundInvio dai a Weather Underground



Vento Da: 25-01-2021 07:00 Fino a: 18:59 Avvertimento per: Vento Livello: Arancio info button
Pioggia Da: 25-01-2021 07:00 Fino a: 18:59 Avvertimento per: Pioggia Livello: Giallo info button

Report METAR

   
LIRV - Viterbo (it-Mil), Italy
Distanza dalla stazione: W 4 km
Dati ricevuti: 25-01-2021 10:55
Pioggia leggera, Molto nuvoloso  
Pioggia leggera, Molto nuvoloso  
   Vento: SW 37 km/h
Vento: SW 37 km/h
Temperatura: 10°C
Temperatura Vento: 6°C
P.to Rugiada: 9°C
Umidita: 94%
Barometro: 1001 hPa
Nuvole: Molto nuvoloso
Visibilita: oltre 10 km
dettagli cloud: Parzialmente nuvoloso 426.7 m,
Molto nuvoloso 670.6 m
LIRV 250955Z 22020KT 9999 -RA SCT014 BKN022 10/09 Q1001
LIQN - Rieti, Italy
Distanza dalla stazione: E 59 km
Dati ricevuti: 25-01-2021 10:50
Pioggia leggera, Nebbia, Molto nuvoloso  
Pioggia leggera, Nebbia, Molto nuvoloso  
   Vento: Variabile 3.7 km/h
Vento: Variabile 3.7 km/h
Temperatura: 4°C
P.to Rugiada: 4°C
Umidita: 100%
Barometro: 1001 hPa
Nuvole: Molto nuvoloso
Visibilita: 5 km
dettagli cloud: Molto nuvoloso 609.6 m
LIQN 250950Z VRB02KT 5000 -RA BR BKN020 04/04 Q1001
LIRU - Rome/Urbe (it-Af, Italy
Distanza dalla stazione: S 61 km
Dati ricevuti: 25-01-2021 10:50
Molto nuvoloso  
Molto nuvoloso  
   Vento: SW 18.5 km/h
Vento: SW 18.5 km/h
Temperatura: 12°C
P.to Rugiada: 9°C
Umidita: 82%
Barometro: 1004 hPa
Nuvole: Molto nuvoloso
Visibilita: 9 km
dettagli cloud: Molto nuvoloso 762 m
LIRU 250950Z 22010KT 9000 BKN025 12/09 Q1004
LIRG - Guidonia (it-Afb, Italy
Distanza dalla stazione: SE 68 km
Dati ricevuti: 25-01-2021 10:55
Pioggia, Molto nuvoloso  
Pioggia, Molto nuvoloso  
   Vento: S 18.5 km/h
Vento: S 18.5 km/h
Temperatura: 8°C
Temperatura Vento: 5°C
P.to Rugiada: 6°C
Umidita: 87%
Barometro: 1005 hPa
Nuvole: Molto nuvoloso
Visibilita: oltre 10 km
dettagli cloud: Parzialmente nuvoloso 609.6 m,
Molto nuvoloso 1066.8 m
LIRG 250955Z 15010KT 9999 RA SCT020 BKN035 08/06 Q1005
LIRK - Terminillo Mount, Italy
Distanza dalla stazione: E 70 km
Dati ricevuti: 25-01-2021 10:55
  
  
   Vento: W 20.4 km/h<br />Gust to 20.4 km/h
Vento: W 20.4 km/h
Gust to 20.4 km/h
Temperatura: -3°C
Temperatura Vento: -9°C
P.to Rugiada: -3°C
Umidita: 100%
Barometro: 999 hPa
LIRK 250955Z AUTO 29011G23KT //// M03/M03 Q0999
 

Script sviluppato da  Saratoga-weather.org Adattato per il modello da  Weerstation Leuven

Strumentazione usata:

Stazione meteo
Davis VP2

Programma gestore dati meteo
WVIEW

Server per i dati meteo
WDS-5

Davis VP2

WVIEW

WDS-5